sensor_id;sensor_type;location;lat;lon;timestamp;P1;durP1;ratioP1;P2;durP2;ratioP2
3278;SDS011;1651;50.940;6.888;2022-08-11T00:01:54;4.27;;;3.33;;
3278;SDS011;1651;50.940;6.888;2022-08-11T00:04:22;4.40;;;4.00;;
3278;SDS011;1651;50.940;6.888;2022-08-11T00:06:48;5.70;;;3.40;;
3278;SDS011;1651;50.940;6.888;2022-08-11T00:09:20;3.80;;;3.40;;
3278;SDS011;1651;50.940;6.888;2022-08-11T00:11:47;4.00;;;3.60;;
3278;SDS011;1651;50.940;6.888;2022-08-11T00:16:39;3.73;;;3.20;;
3278;SDS011;1651;50.940;6.888;2022-08-11T00:19:09;3.53;;;3.13;;
3278;SDS011;1651;50.940;6.888;2022-08-11T00:21:40;5.13;;;4.23;;
3278;SDS011;1651;50.940;6.888;2022-08-11T00:24:07;4.00;;;3.37;;
3278;SDS011;1651;50.940;6.888;2022-08-11T00:26:34;6.00;;;3.50;;
3278;SDS011;1651;50.940;6.888;2022-08-11T00:29:08;6.63;;;3.23;;
3278;SDS011;1651;50.940;6.888;2022-08-11T00:31:34;5.40;;;3.30;;
3278;SDS011;1651;50.940;6.888;2022-08-11T00:34:01;4.80;;;3.90;;
3278;SDS011;1651;50.940;6.888;2022-08-11T00:36:38;3.90;;;3.40;;
3278;SDS011;1651;50.940;6.888;2022-08-11T00:39:11;4.10;;;3.70;;
3278;SDS011;1651;50.940;6.888;2022-08-11T00:44:14;3.77;;;3.43;;
3278;SDS011;1651;50.940;6.888;2022-08-11T00:52:21;3.97;;;3.63;;
3278;SDS011;1651;50.940;6.888;2022-08-11T01:00:04;3.70;;;3.40;;
3278;SDS011;1651;50.940;6.888;2022-08-11T01:28:56;4.10;;;3.67;;
3278;SDS011;1651;50.940;6.888;2022-08-11T01:34:07;5.13;;;4.20;;
3278;SDS011;1651;50.940;6.888;2022-08-11T01:37:01;4.30;;;3.63;;
3278;SDS011;1651;50.940;6.888;2022-08-11T01:39:44;3.67;;;3.37;;
3278;SDS011;1651;50.940;6.888;2022-08-11T01:47:55;4.70;;;3.60;;
3278;SDS011;1651;50.940;6.888;2022-08-11T01:58:48;3.83;;;3.53;;
3278;SDS011;1651;50.940;6.888;2022-08-11T02:03:46;9.80;;;4.07;;
3278;SDS011;1651;50.940;6.888;2022-08-11T02:06:25;5.67;;;3.80;;
3278;SDS011;1651;50.940;6.888;2022-08-11T02:11:39;6.00;;;3.90;;
3278;SDS011;1651;50.940;6.888;2022-08-11T02:16:58;5.27;;;3.87;;
3278;SDS011;1651;50.940;6.888;2022-08-11T02:19:47;4.30;;;3.70;;
3278;SDS011;1651;50.940;6.888;2022-08-11T02:25:33;8.70;;;4.07;;
3278;SDS011;1651;50.940;6.888;2022-08-11T02:30:59;5.27;;;3.93;;
3278;SDS011;1651;50.940;6.888;2022-08-11T02:33:49;4.20;;;3.73;;
3278;SDS011;1651;50.940;6.888;2022-08-11T02:36:23;5.10;;;4.60;;
3278;SDS011;1651;50.940;6.888;2022-08-11T02:39:00;5.47;;;3.80;;
3278;SDS011;1651;50.940;6.888;2022-08-11T02:50:02;5.10;;;4.57;;
3278;SDS011;1651;50.940;6.888;2022-08-11T02:52:40;5.87;;;4.40;;
3278;SDS011;1651;50.940;6.888;2022-08-11T03:00:23;4.63;;;3.70;;
3278;SDS011;1651;50.940;6.888;2022-08-11T03:13:42;5.60;;;4.50;;
3278;SDS011;1651;50.940;6.888;2022-08-11T03:16:31;5.33;;;4.23;;
3278;SDS011;1651;50.940;6.888;2022-08-11T03:21:41;6.30;;;4.07;;
3278;SDS011;1651;50.940;6.888;2022-08-11T03:24:13;5.57;;;3.93;;
3278;SDS011;1651;50.940;6.888;2022-08-11T03:27:26;5.13;;;4.47;;
3278;SDS011;1651;50.940;6.888;2022-08-11T03:34:53;3.87;;;3.57;;
3278;SDS011;1651;50.940;6.888;2022-08-11T03:43:10;4.63;;;4.20;;
3278;SDS011;1651;50.940;6.888;2022-08-11T03:53:48;4.40;;;4.00;;
3278;SDS011;1651;50.940;6.888;2022-08-11T04:10:13;9.00;;;4.60;;
3278;SDS011;1651;50.940;6.888;2022-08-11T04:29:03;8.83;;;4.53;;
3278;SDS011;1651;50.940;6.888;2022-08-11T04:36:46;4.73;;;4.13;;
3278;SDS011;1651;50.940;6.888;2022-08-11T04:47:52;5.40;;;4.30;;
3278;SDS011;1651;50.940;6.888;2022-08-11T04:50:53;4.83;;;4.33;;
3278;SDS011;1651;50.940;6.888;2022-08-11T04:56:44;5.53;;;4.20;;
3278;SDS011;1651;50.940;6.888;2022-08-11T05:10:54;6.47;;;4.40;;
3278;SDS011;1651;50.940;6.888;2022-08-11T05:16:16;4.50;;;3.80;;
3278;SDS011;1651;50.940;6.888;2022-08-11T05:19:02;4.63;;;4.10;;
3278;SDS011;1651;50.940;6.888;2022-08-11T05:21:52;5.50;;;4.23;;
3278;SDS011;1651;50.940;6.888;2022-08-11T05:24:55;7.73;;;4.60;;
3278;SDS011;1651;50.940;6.888;2022-08-11T05:27:44;5.63;;;4.07;;
3278;SDS011;1651;50.940;6.888;2022-08-11T05:30:32;4.83;;;4.37;;
3278;SDS011;1651;50.940;6.888;2022-08-11T05:33:24;14.33;;;4.77;;
3278;SDS011;1651;50.940;6.888;2022-08-11T05:36:27;9.17;;;4.30;;
3278;SDS011;1651;50.940;6.888;2022-08-11T05:39:02;10.30;;;4.90;;
3278;SDS011;1651;50.940;6.888;2022-08-11T05:41:48;7.00;;;4.60;;
3278;SDS011;1651;50.940;6.888;2022-08-11T05:44:33;5.20;;;4.80;;
3278;SDS011;1651;50.940;6.888;2022-08-11T05:47:20;5.20;;;4.40;;
3278;SDS011;1651;50.940;6.888;2022-08-11T05:50:06;5.13;;;4.63;;
3278;SDS011;1651;50.940;6.888;2022-08-11T05:52:52;6.17;;;5.60;;
3278;SDS011;1651;50.940;6.888;2022-08-11T05:55:41;7.77;;;4.73;;
3278;SDS011;1651;50.940;6.888;2022-08-11T05:58:26;4.80;;;4.40;;
3278;SDS011;1651;50.940;6.888;2022-08-11T06:00:59;5.77;;;4.33;;
3278;SDS011;1651;50.940;6.888;2022-08-11T06:03:26;5.27;;;4.50;;
3278;SDS011;1651;50.940;6.888;2022-08-11T06:05:55;4.70;;;3.80;;
3278;SDS011;1651;50.940;6.888;2022-08-11T06:08:29;5.53;;;4.07;;
3278;SDS011;1651;50.940;6.888;2022-08-11T06:11:03;4.17;;;3.83;;
3278;SDS011;1651;50.940;6.888;2022-08-11T06:13:30;4.03;;;3.63;;
3278;SDS011;1651;50.940;6.888;2022-08-11T06:15:56;4.97;;;4.03;;
3278;SDS011;1651;50.940;6.888;2022-08-11T06:18:24;7.90;;;4.17;;
3278;SDS011;1651;50.940;6.888;2022-08-11T06:20:51;5.33;;;3.70;;
3278;SDS011;1651;50.940;6.888;2022-08-11T06:23:21;4.87;;;3.43;;
3278;SDS011;1651;50.940;6.888;2022-08-11T06:25:49;5.13;;;3.40;;
3278;SDS011;1651;50.940;6.888;2022-08-11T06:28:16;3.47;;;3.17;;
3278;SDS011;1651;50.940;6.888;2022-08-11T06:30:45;4.00;;;3.60;;
3278;SDS011;1651;50.940;6.888;2022-08-11T06:33:20;4.80;;;3.40;;
3278;SDS011;1651;50.940;6.888;2022-08-11T06:39:01;3.47;;;3.27;;
3278;SDS011;1651;50.940;6.888;2022-08-11T06:41:30;3.00;;;2.80;;
3278;SDS011;1651;50.940;6.888;2022-08-11T06:44:00;3.33;;;3.07;;
3278;SDS011;1651;50.940;6.888;2022-08-11T06:46:30;3.70;;;2.97;;
3278;SDS011;1651;50.940;6.888;2022-08-11T06:48:59;5.57;;;3.23;;
3278;SDS011;1651;50.940;6.888;2022-08-11T06:51:26;4.40;;;3.30;;
3278;SDS011;1651;50.940;6.888;2022-08-11T06:53:53;4.33;;;3.00;;
3278;SDS011;1651;50.940;6.888;2022-08-11T06:56:27;4.57;;;3.07;;
3278;SDS011;1651;50.940;6.888;2022-08-11T06:59:14;3.43;;;3.07;;
3278;SDS011;1651;50.940;6.888;2022-08-11T07:02:04;5.23;;;3.23;;
3278;SDS011;1651;50.940;6.888;2022-08-11T07:04:42;3.83;;;3.53;;
3278;SDS011;1651;50.940;6.888;2022-08-11T07:12:49;3.67;;;2.70;;
3278;SDS011;1651;50.940;6.888;2022-08-11T07:15:38;3.63;;;3.10;;
3278;SDS011;1651;50.940;6.888;2022-08-11T07:18:10;3.97;;;3.23;;
3278;SDS011;1651;50.940;6.888;2022-08-11T07:21:04;3.23;;;2.93;;
3278;SDS011;1651;50.940;6.888;2022-08-11T07:23:50;3.63;;;3.30;;
3278;SDS011;1651;50.940;6.888;2022-08-11T07:26:38;5.47;;;3.07;;
3278;SDS011;1651;50.940;6.888;2022-08-11T07:29:25;3.00;;;2.70;;
3278;SDS011;1651;50.940;6.888;2022-08-11T07:31:51;9.03;;;3.80;;
3278;SDS011;1651;50.940;6.888;2022-08-11T07:36:52;2.90;;;2.70;;
3278;SDS011;1651;50.940;6.888;2022-08-11T07:39:20;6.50;;;3.20;;
3278;SDS011;1651;50.940;6.888;2022-08-11T07:41:49;3.33;;;2.63;;
3278;SDS011;1651;50.940;6.888;2022-08-11T07:44:15;4.73;;;3.20;;
3278;SDS011;1651;50.940;6.888;2022-08-11T07:46:43;2.93;;;2.40;;
3278;SDS011;1651;50.940;6.888;2022-08-11T07:49:30;7.10;;;2.93;;
3278;SDS011;1651;50.940;6.888;2022-08-11T07:52:15;3.73;;;3.20;;
3278;SDS011;1651;50.940;6.888;2022-08-11T07:55:02;5.47;;;3.03;;
3278;SDS011;1651;50.940;6.888;2022-08-11T07:57:30;2.93;;;2.73;;
3278;SDS011;1651;50.940;6.888;2022-08-11T08:00:15;3.03;;;2.50;;
3278;SDS011;1651;50.940;6.888;2022-08-11T08:03:00;2.97;;;2.67;;
3278;SDS011;1651;50.940;6.888;2022-08-11T08:05:47;3.20;;;2.90;;
3278;SDS011;1651;50.940;6.888;2022-08-11T08:08:33;3.87;;;2.50;;
3278;SDS011;1651;50.940;6.888;2022-08-11T08:11:19;2.90;;;2.70;;
3278;SDS011;1651;50.940;6.888;2022-08-11T08:14:04;4.80;;;2.50;;
3278;SDS011;1651;50.940;6.888;2022-08-11T08:16:49;6.00;;;2.80;;
3278;SDS011;1651;50.940;6.888;2022-08-11T08:19:35;2.70;;;1.90;;
3278;SDS011;1651;50.940;6.888;2022-08-11T08:22:01;3.10;;;2.80;;
3278;SDS011;1651;50.940;6.888;2022-08-11T08:24:28;2.90;;;2.43;;
3278;SDS011;1651;50.940;6.888;2022-08-11T08:26:55;3.00;;;2.53;;
3278;SDS011;1651;50.940;6.888;2022-08-11T08:29:25;3.40;;;2.33;;
3278;SDS011;1651;50.940;6.888;2022-08-11T08:32:11;3.60;;;2.80;;
3278;SDS011;1651;50.940;6.888;2022-08-11T08:34:37;2.70;;;2.50;;
3278;SDS011;1651;50.940;6.888;2022-08-11T08:37:05;2.90;;;2.63;;
3278;SDS011;1651;50.940;6.888;2022-08-11T08:39:32;3.93;;;2.70;;
3278;SDS011;1651;50.940;6.888;2022-08-11T08:41:58;6.00;;;3.00;;
3278;SDS011;1651;50.940;6.888;2022-08-11T08:44:25;3.43;;;2.30;;
3278;SDS011;1651;50.940;6.888;2022-08-11T08:46:53;2.83;;;2.63;;
3278;SDS011;1651;50.940;6.888;2022-08-11T08:49:43;4.60;;;2.40;;
3278;SDS011;1651;50.940;6.888;2022-08-11T08:52:07;3.23;;;2.20;;
3278;SDS011;1651;50.940;6.888;2022-08-11T08:54:36;3.53;;;2.57;;
3278;SDS011;1651;50.940;6.888;2022-08-11T08:57:04;2.90;;;2.70;;
3278;SDS011;1651;50.940;6.888;2022-08-11T08:59:31;2.93;;;2.60;;
3278;SDS011;1651;50.940;6.888;2022-08-11T09:02:00;3.10;;;2.37;;
3278;SDS011;1651;50.940;6.888;2022-08-11T09:04:26;1.95;;;1.85;;
3278;SDS011;1651;50.940;6.888;2022-08-11T09:06:55;3.15;;;2.45;;
3278;SDS011;1651;50.940;6.888;2022-08-11T09:09:23;2.78;;;2.58;;
3278;SDS011;1651;50.940;6.888;2022-08-11T09:11:49;6.00;;;2.83;;
3278;SDS011;1651;50.940;6.888;2022-08-11T09:14:18;3.50;;;2.85;;
3278;SDS011;1651;50.940;6.888;2022-08-11T09:16:44;5.30;;;2.60;;
3278;SDS011;1651;50.940;6.888;2022-08-11T09:19:14;3.70;;;2.10;;
3278;SDS011;1651;50.940;6.888;2022-08-11T09:21:45;2.60;;;2.40;;
3278;SDS011;1651;50.940;6.888;2022-08-11T09:24:32;4.23;;;2.20;;
3278;SDS011;1651;50.940;6.888;2022-08-11T09:27:19;2.57;;;2.10;;
3278;SDS011;1651;50.940;6.888;2022-08-11T09:29:45;2.83;;;2.30;;
3278;SDS011;1651;50.940;6.888;2022-08-11T09:32:11;3.33;;;2.40;;
3278;SDS011;1651;50.940;6.888;2022-08-11T09:34:40;2.77;;;2.23;;
3278;SDS011;1651;50.940;6.888;2022-08-11T09:37:08;3.80;;;2.30;;
3278;SDS011;1651;50.940;6.888;2022-08-11T09:39:55;3.00;;;2.23;;
3278;SDS011;1651;50.940;6.888;2022-08-11T09:42:42;3.20;;;2.50;;
3278;SDS011;1651;50.940;6.888;2022-08-11T09:45:28;6.20;;;2.43;;
3278;SDS011;1651;50.940;6.888;2022-08-11T09:47:55;5.17;;;2.03;;
3278;SDS011;1651;50.940;6.888;2022-08-11T09:50:22;2.57;;;2.37;;
3278;SDS011;1651;50.940;6.888;2022-08-11T09:52:49;3.70;;;2.27;;
3278;SDS011;1651;50.940;6.888;2022-08-11T09:55:15;3.73;;;2.00;;
3278;SDS011;1651;50.940;6.888;2022-08-11T09:57:45;2.90;;;2.37;;
3278;SDS011;1651;50.940;6.888;2022-08-11T10:00:34;2.80;;;2.30;;
3278;SDS011;1651;50.940;6.888;2022-08-11T10:03:02;2.70;;;2.50;;
3278;SDS011;1651;50.940;6.888;2022-08-11T10:05:31;2.50;;;2.30;;
3278;SDS011;1651;50.940;6.888;2022-08-11T10:08:17;2.43;;;2.23;;
3278;SDS011;1651;50.940;6.888;2022-08-11T10:10:43;3.37;;;3.00;;
3278;SDS011;1651;50.940;6.888;2022-08-11T10:13:13;6.03;;;2.43;;
3278;SDS011;1651;50.940;6.888;2022-08-11T10:15:41;3.20;;;2.63;;
3278;SDS011;1651;50.940;6.888;2022-08-11T10:18:15;2.73;;;2.53;;
3278;SDS011;1651;50.940;6.888;2022-08-11T10:23:46;3.63;;;2.57;;
3278;SDS011;1651;50.940;6.888;2022-08-11T10:26:31;3.63;;;2.67;;
3278;SDS011;1651;50.940;6.888;2022-08-11T10:29:17;3.80;;;2.77;;
3278;SDS011;1651;50.940;6.888;2022-08-11T10:32:02;3.10;;;2.80;;
3278;SDS011;1651;50.940;6.888;2022-08-11T10:34:48;3.37;;;3.07;;
3278;SDS011;1651;50.940;6.888;2022-08-11T10:37:14;3.43;;;2.30;;
3278;SDS011;1651;50.940;6.888;2022-08-11T10:39:41;5.20;;;2.87;;
3278;SDS011;1651;50.940;6.888;2022-08-11T10:42:09;3.50;;;2.87;;
3278;SDS011;1651;50.940;6.888;2022-08-11T10:44:55;5.03;;;3.03;;
3278;SDS011;1651;50.940;6.888;2022-08-11T10:47:22;5.03;;;2.60;;
3278;SDS011;1651;50.940;6.888;2022-08-11T10:50:03;3.03;;;2.63;;
3278;SDS011;1651;50.940;6.888;2022-08-11T10:52:52;3.17;;;2.90;;
3278;SDS011;1651;50.940;6.888;2022-08-11T10:55:38;2.93;;;2.60;;
3278;SDS011;1651;50.940;6.888;2022-08-11T10:58:25;2.97;;;2.70;;
3278;SDS011;1651;50.940;6.888;2022-08-11T11:01:11;2.87;;;2.67;;
3278;SDS011;1651;50.940;6.888;2022-08-11T11:03:38;3.37;;;2.87;;
3278;SDS011;1651;50.940;6.888;2022-08-11T11:06:11;5.83;;;3.07;;
3278;SDS011;1651;50.940;6.888;2022-08-11T11:08:43;3.23;;;2.93;;
3278;SDS011;1651;50.940;6.888;2022-08-11T11:11:21;4.67;;;2.90;;
3278;SDS011;1651;50.940;6.888;2022-08-11T11:13:51;5.20;;;4.80;;
3278;SDS011;1651;50.940;6.888;2022-08-11T11:16:37;3.20;;;2.90;;
3278;SDS011;1651;50.940;6.888;2022-08-11T11:19:23;6.10;;;2.90;;
3278;SDS011;1651;50.940;6.888;2022-08-11T11:21:51;2.60;;;2.40;;
3278;SDS011;1651;50.940;6.888;2022-08-11T11:24:37;4.60;;;3.40;;
3278;SDS011;1651;50.940;6.888;2022-08-11T11:32:10;8.23;;;3.20;;
3278;SDS011;1651;50.940;6.888;2022-08-11T11:37:08;3.03;;;2.80;;
3278;SDS011;1651;50.940;6.888;2022-08-11T11:39:37;3.53;;;2.87;;
3278;SDS011;1651;50.940;6.888;2022-08-11T11:42:06;3.17;;;2.87;;
3278;SDS011;1651;50.940;6.888;2022-08-11T11:44:35;4.90;;;3.13;;
3278;SDS011;1651;50.940;6.888;2022-08-11T11:47:04;4.77;;;2.93;;
3278;SDS011;1651;50.940;6.888;2022-08-11T11:49:31;2.90;;;2.70;;
3278;SDS011;1651;50.940;6.888;2022-08-11T11:51:58;3.20;;;3.00;;
3278;SDS011;1651;50.940;6.888;2022-08-11T11:54:29;3.50;;;2.90;;
3278;SDS011;1651;50.940;6.888;2022-08-11T11:56:57;2.77;;;2.57;;
3278;SDS011;1651;50.940;6.888;2022-08-11T11:59:44;3.77;;;3.03;;
3278;SDS011;1651;50.940;6.888;2022-08-11T12:02:31;3.67;;;3.37;;
3278;SDS011;1651;50.940;6.888;2022-08-11T12:04:57;4.90;;;3.40;;
3278;SDS011;1651;50.940;6.888;2022-08-11T12:07:25;2.93;;;2.73;;
3278;SDS011;1651;50.940;6.888;2022-08-11T12:10:10;5.00;;;2.67;;
3278;SDS011;1651;50.940;6.888;2022-08-11T12:12:36;4.23;;;3.10;;
3278;SDS011;1651;50.940;6.888;2022-08-11T12:15:22;3.77;;;3.23;;
3278;SDS011;1651;50.940;6.888;2022-08-11T12:17:48;4.83;;;2.83;;
3278;SDS011;1651;50.940;6.888;2022-08-11T12:20:15;4.90;;;3.57;;
3278;SDS011;1651;50.940;6.888;2022-08-11T12:22:46;3.10;;;2.90;;
3278;SDS011;1651;50.940;6.888;2022-08-11T12:25:34;7.33;;;4.13;;
3278;SDS011;1651;50.940;6.888;2022-08-11T12:28:19;3.87;;;3.37;;
3278;SDS011;1651;50.940;6.888;2022-08-11T12:30:50;3.40;;;3.10;;
3278;SDS011;1651;50.940;6.888;2022-08-11T12:33:18;2.87;;;2.23;;
3278;SDS011;1651;50.940;6.888;2022-08-11T12:35:45;2.90;;;2.70;;
3278;SDS011;1651;50.940;6.888;2022-08-11T12:38:13;3.33;;;3.03;;
3278;SDS011;1651;50.940;6.888;2022-08-11T12:40:42;3.77;;;3.43;;
3278;SDS011;1651;50.940;6.888;2022-08-11T12:43:28;3.60;;;3.03;;
3278;SDS011;1651;50.940;6.888;2022-08-11T12:46:24;4.80;;;3.30;;
3278;SDS011;1651;50.940;6.888;2022-08-11T12:48:58;4.73;;;2.90;;
3278;SDS011;1651;50.940;6.888;2022-08-11T12:51:48;3.43;;;2.93;;
3278;SDS011;1651;50.940;6.888;2022-08-11T12:57:14;6.00;;;2.80;;
3278;SDS011;1651;50.940;6.888;2022-08-11T13:00:02;7.90;;;3.30;;
3278;SDS011;1651;50.940;6.888;2022-08-11T13:02:47;3.00;;;2.70;;
3278;SDS011;1651;50.940;6.888;2022-08-11T13:05:33;6.27;;;3.03;;
3278;SDS011;1651;50.940;6.888;2022-08-11T13:08:00;4.60;;;3.10;;
3278;SDS011;1651;50.940;6.888;2022-08-11T13:10:27;4.73;;;3.50;;
3278;SDS011;1651;50.940;6.888;2022-08-11T13:13:12;4.80;;;3.50;;
3278;SDS011;1651;50.940;6.888;2022-08-11T13:15:40;10.20;;;3.23;;
3278;SDS011;1651;50.940;6.888;2022-08-11T13:18:07;7.30;;;3.50;;
3278;SDS011;1651;50.940;6.888;2022-08-11T13:20:33;4.27;;;3.43;;
3278;SDS011;1651;50.940;6.888;2022-08-11T13:23:00;3.10;;;2.90;;
3278;SDS011;1651;50.940;6.888;2022-08-11T13:25:27;2.83;;;2.50;;
3278;SDS011;1651;50.940;6.888;2022-08-11T13:27:56;3.90;;;2.57;;
3278;SDS011;1651;50.940;6.888;2022-08-11T13:30:23;2.80;;;2.60;;
3278;SDS011;1651;50.940;6.888;2022-08-11T13:33:09;3.13;;;2.93;;
3278;SDS011;1651;50.940;6.888;2022-08-11T13:35:38;6.53;;;3.70;;
3278;SDS011;1651;50.940;6.888;2022-08-11T13:38:06;3.13;;;2.93;;
3278;SDS011;1651;50.940;6.888;2022-08-11T13:40:39;5.20;;;3.10;;
3278;SDS011;1651;50.940;6.888;2022-08-11T13:43:06;3.13;;;2.80;;
3278;SDS011;1651;50.940;6.888;2022-08-11T13:45:33;10.83;;;4.67;;
3278;SDS011;1651;50.940;6.888;2022-08-11T13:48:00;3.07;;;2.87;;
3278;SDS011;1651;50.940;6.888;2022-08-11T13:50:29;6.30;;;3.30;;
3278;SDS011;1651;50.940;6.888;2022-08-11T13:53:18;5.70;;;3.17;;
3278;SDS011;1651;50.940;6.888;2022-08-11T13:55:46;7.10;;;2.90;;
3278;SDS011;1651;50.940;6.888;2022-08-11T13:58:13;5.10;;;4.00;;
3278;SDS011;1651;50.940;6.888;2022-08-11T14:00:40;6.53;;;3.20;;
3278;SDS011;1651;50.940;6.888;2022-08-11T14:03:10;9.03;;;3.90;;
3278;SDS011;1651;50.940;6.888;2022-08-11T14:05:41;4.13;;;2.97;;
3278;SDS011;1651;50.940;6.888;2022-08-11T14:08:16;3.47;;;3.17;;
3278;SDS011;1651;50.940;6.888;2022-08-11T14:10:42;4.10;;;3.37;;
3278;SDS011;1651;50.940;6.888;2022-08-11T14:13:16;4.13;;;3.17;;
3278;SDS011;1651;50.940;6.888;2022-08-11T14:16:03;3.40;;;3.10;;
3278;SDS011;1651;50.940;6.888;2022-08-11T14:18:31;3.40;;;3.10;;
3278;SDS011;1651;50.940;6.888;2022-08-11T14:20:59;4.73;;;3.07;;
3278;SDS011;1651;50.940;6.888;2022-08-11T14:23:45;4.70;;;3.40;;
3278;SDS011;1651;50.940;6.888;2022-08-11T14:26:13;3.67;;;2.70;;
3278;SDS011;1651;50.940;6.888;2022-08-11T14:28:59;3.93;;;3.63;;
3278;SDS011;1651;50.940;6.888;2022-08-11T14:31:27;3.23;;;2.90;;
3278;SDS011;1651;50.940;6.888;2022-08-11T14:33:54;6.23;;;3.10;;
3278;SDS011;1651;50.940;6.888;2022-08-11T14:36:23;3.73;;;3.43;;
3278;SDS011;1651;50.940;6.888;2022-08-11T14:38:50;3.47;;;3.17;;
3278;SDS011;1651;50.940;6.888;2022-08-11T14:41:20;3.57;;;3.27;;
3278;SDS011;1651;50.940;6.888;2022-08-11T14:44:06;3.00;;;2.80;;
3278;SDS011;1651;50.940;6.888;2022-08-11T14:46:52;5.47;;;2.80;;
3278;SDS011;1651;50.940;6.888;2022-08-11T14:49:33;3.47;;;3.17;;
3278;SDS011;1651;50.940;6.888;2022-08-11T14:52:05;4.30;;;2.97;;
3278;SDS011;1651;50.940;6.888;2022-08-11T14:54:32;4.27;;;3.17;;
3278;SDS011;1651;50.940;6.888;2022-08-11T14:57:17;5.20;;;4.03;;
3278;SDS011;1651;50.940;6.888;2022-08-11T14:59:44;3.00;;;2.70;;
3278;SDS011;1651;50.940;6.888;2022-08-11T15:02:12;3.20;;;3.00;;
3278;SDS011;1651;50.940;6.888;2022-08-11T15:04:57;5.73;;;3.33;;
3278;SDS011;1651;50.940;6.888;2022-08-11T15:07:25;4.63;;;2.73;;
3278;SDS011;1651;50.940;6.888;2022-08-11T15:09:57;3.30;;;3.00;;
3278;SDS011;1651;50.940;6.888;2022-08-11T15:12:24;7.30;;;3.37;;
3278;SDS011;1651;50.940;6.888;2022-08-11T15:14:50;7.97;;;3.37;;
3278;SDS011;1651;50.940;6.888;2022-08-11T15:17:35;9.60;;;3.30;;
3278;SDS011;1651;50.940;6.888;2022-08-11T15:20:04;19.17;;;5.00;;
3278;SDS011;1651;50.940;6.888;2022-08-11T15:22:50;13.43;;;4.30;;
3278;SDS011;1651;50.940;6.888;2022-08-11T15:25:34;5.23;;;3.10;;
3278;SDS011;1651;50.940;6.888;2022-08-11T15:28:01;6.30;;;2.90;;
3278;SDS011;1651;50.940;6.888;2022-08-11T15:30:50;5.20;;;3.27;;
3278;SDS011;1651;50.940;6.888;2022-08-11T15:33:36;3.73;;;3.30;;
3278;SDS011;1651;50.940;6.888;2022-08-11T15:36:22;3.53;;;3.30;;
3278;SDS011;1651;50.940;6.888;2022-08-11T15:39:18;5.67;;;2.90;;
3278;SDS011;1651;50.940;6.888;2022-08-11T15:41:47;3.27;;;2.97;;
3278;SDS011;1651;50.940;6.888;2022-08-11T15:44:34;5.60;;;3.23;;
3278;SDS011;1651;50.940;6.888;2022-08-11T15:47:21;3.50;;;3.20;;
3278;SDS011;1651;50.940;6.888;2022-08-11T15:49:51;7.03;;;3.20;;
3278;SDS011;1651;50.940;6.888;2022-08-11T15:52:20;3.43;;;3.23;;
3278;SDS011;1651;50.940;6.888;2022-08-11T15:54:48;6.00;;;3.07;;
3278;SDS011;1651;50.940;6.888;2022-08-11T15:57:15;2.97;;;2.77;;
3278;SDS011;1651;50.940;6.888;2022-08-11T16:00:03;4.07;;;3.60;;
3278;SDS011;1651;50.940;6.888;2022-08-11T16:02:49;2.93;;;2.73;;
3278;SDS011;1651;50.940;6.888;2022-08-11T16:05:36;3.70;;;3.37;;
3278;SDS011;1651;50.940;6.888;2022-08-11T16:08:03;5.87;;;3.30;;
3278;SDS011;1651;50.940;6.888;2022-08-11T16:10:29;3.70;;;3.23;;
3278;SDS011;1651;50.940;6.888;2022-08-11T16:12:56;5.30;;;3.50;;
3278;SDS011;1651;50.940;6.888;2022-08-11T16:15:36;3.90;;;3.30;;
3278;SDS011;1651;50.940;6.888;2022-08-11T16:18:24;8.10;;;4.00;;
3278;SDS011;1651;50.940;6.888;2022-08-11T16:21:06;3.70;;;3.10;;
3278;SDS011;1651;50.940;6.888;2022-08-11T16:23:33;4.77;;;3.03;;
3278;SDS011;1651;50.940;6.888;2022-08-11T16:26:00;5.80;;;3.10;;
3278;SDS011;1651;50.940;6.888;2022-08-11T16:28:26;8.27;;;3.47;;
3278;SDS011;1651;50.940;6.888;2022-08-11T16:30:54;11.60;;;3.47;;
3278;SDS011;1651;50.940;6.888;2022-08-11T16:33:21;4.47;;;3.70;;
3278;SDS011;1651;50.940;6.888;2022-08-11T16:35:48;7.40;;;3.57;;
3278;SDS011;1651;50.940;6.888;2022-08-11T16:38:33;10.70;;;3.53;;
3278;SDS011;1651;50.940;6.888;2022-08-11T16:41:06;4.53;;;3.73;;
3278;SDS011;1651;50.940;6.888;2022-08-11T16:43:34;8.43;;;3.90;;
3278;SDS011;1651;50.940;6.888;2022-08-11T16:46:21;3.60;;;3.30;;
3278;SDS011;1651;50.940;6.888;2022-08-11T16:49:12;5.80;;;3.00;;
3278;SDS011;1651;50.940;6.888;2022-08-11T16:51:41;3.30;;;3.10;;
3278;SDS011;1651;50.940;6.888;2022-08-11T16:54:08;6.87;;;3.20;;
3278;SDS011;1651;50.940;6.888;2022-08-11T16:56:35;4.27;;;3.47;;
3278;SDS011;1651;50.940;6.888;2022-08-11T16:59:06;3.93;;;3.53;;
3278;SDS011;1651;50.940;6.888;2022-08-11T17:01:57;3.00;;;2.80;;
3278;SDS011;1651;50.940;6.888;2022-08-11T17:04:34;3.47;;;2.93;;
3278;SDS011;1651;50.940;6.888;2022-08-11T17:07:19;3.73;;;3.00;;
3278;SDS011;1651;50.940;6.888;2022-08-11T17:10:06;3.63;;;3.33;;
3278;SDS011;1651;50.940;6.888;2022-08-11T17:12:53;3.60;;;3.13;;
3278;SDS011;1651;50.940;6.888;2022-08-11T17:15:36;3.80;;;3.50;;
3278;SDS011;1651;50.940;6.888;2022-08-11T17:18:22;3.87;;;3.57;;
3278;SDS011;1651;50.940;6.888;2022-08-11T17:23:40;3.53;;;3.23;;
3278;SDS011;1651;50.940;6.888;2022-08-11T17:26:26;3.53;;;3.27;;
3278;SDS011;1651;50.940;6.888;2022-08-11T17:29:16;4.10;;;3.73;;
3278;SDS011;1651;50.940;6.888;2022-08-11T17:31:43;4.83;;;3.63;;
3278;SDS011;1651;50.940;6.888;2022-08-11T17:34:28;6.67;;;4.17;;
3278;SDS011;1651;50.940;6.888;2022-08-11T17:37:14;3.77;;;3.40;;
3278;SDS011;1651;50.940;6.888;2022-08-11T17:39:40;4.20;;;3.53;;
3278;SDS011;1651;50.940;6.888;2022-08-11T17:42:06;3.60;;;3.30;;
3278;SDS011;1651;50.940;6.888;2022-08-11T17:44:51;4.40;;;3.40;;
3278;SDS011;1651;50.940;6.888;2022-08-11T17:47:37;3.97;;;3.50;;
3278;SDS011;1651;50.940;6.888;2022-08-11T17:50:22;3.73;;;3.43;;
3278;SDS011;1651;50.940;6.888;2022-08-11T17:52:48;4.17;;;3.80;;
3278;SDS011;1651;50.940;6.888;2022-08-11T17:55:34;4.30;;;3.90;;
3278;SDS011;1651;50.940;6.888;2022-08-11T17:58:20;3.73;;;3.40;;
3278;SDS011;1651;50.940;6.888;2022-08-11T18:01:07;3.93;;;3.30;;
3278;SDS011;1651;50.940;6.888;2022-08-11T18:03:34;4.33;;;3.80;;
3278;SDS011;1651;50.940;6.888;2022-08-11T18:06:03;4.83;;;3.90;;
3278;SDS011;1651;50.940;6.888;2022-08-11T18:08:30;4.20;;;3.80;;
3278;SDS011;1651;50.940;6.888;2022-08-11T18:11:17;3.83;;;3.53;;
3278;SDS011;1651;50.940;6.888;2022-08-11T18:14:03;5.73;;;3.50;;
3278;SDS011;1651;50.940;6.888;2022-08-11T18:16:48;3.53;;;3.27;;
3278;SDS011;1651;50.940;6.888;2022-08-11T18:19:35;4.00;;;3.17;;
3278;SDS011;1651;50.940;6.888;2022-08-11T18:22:21;6.10;;;3.80;;
3278;SDS011;1651;50.940;6.888;2022-08-11T18:25:11;4.27;;;3.87;;
3278;SDS011;1651;50.940;6.888;2022-08-11T18:27:57;4.67;;;4.27;;
3278;SDS011;1651;50.940;6.888;2022-08-11T18:30:44;6.27;;;4.17;;
3278;SDS011;1651;50.940;6.888;2022-08-11T18:33:41;6.07;;;3.77;;
3278;SDS011;1651;50.940;6.888;2022-08-11T18:36:28;4.00;;;3.60;;
3278;SDS011;1651;50.940;6.888;2022-08-11T18:39:14;5.27;;;4.00;;
3278;SDS011;1651;50.940;6.888;2022-08-11T18:42:01;7.23;;;4.10;;
3278;SDS011;1651;50.940;6.888;2022-08-11T18:44:49;5.20;;;3.90;;
3278;SDS011;1651;50.940;6.888;2022-08-11T18:47:34;5.37;;;3.80;;
3278;SDS011;1651;50.940;6.888;2022-08-11T18:50:19;4.77;;;4.17;;
3278;SDS011;1651;50.940;6.888;2022-08-11T18:53:04;4.70;;;4.20;;
3278;SDS011;1651;50.940;6.888;2022-08-11T18:55:50;4.73;;;4.37;;
3278;SDS011;1651;50.940;6.888;2022-08-11T18:58:35;4.50;;;4.20;;
3278;SDS011;1651;50.940;6.888;2022-08-11T19:01:20;5.73;;;4.23;;
3278;SDS011;1651;50.940;6.888;2022-08-11T19:04:06;10.30;;;4.47;;
3278;SDS011;1651;50.940;6.888;2022-08-11T19:06:56;7.00;;;4.60;;
3278;SDS011;1651;50.940;6.888;2022-08-11T19:09:42;4.53;;;4.13;;
3278;SDS011;1651;50.940;6.888;2022-08-11T19:12:30;5.07;;;4.60;;
3278;SDS011;1651;50.940;6.888;2022-08-11T19:15:15;6.27;;;4.70;;
3278;SDS011;1651;50.940;6.888;2022-08-11T19:18:01;8.17;;;5.00;;
3278;SDS011;1651;50.940;6.888;2022-08-11T19:20:49;5.57;;;5.00;;
3278;SDS011;1651;50.940;6.888;2022-08-11T19:23:35;5.80;;;4.60;;
3278;SDS011;1651;50.940;6.888;2022-08-11T19:26:21;5.03;;;4.50;;
3278;SDS011;1651;50.940;6.888;2022-08-11T19:29:08;4.90;;;4.50;;
3278;SDS011;1651;50.940;6.888;2022-08-11T19:31:53;4.60;;;4.30;;
3278;SDS011;1651;50.940;6.888;2022-08-11T19:34:40;7.03;;;5.13;;
3278;SDS011;1651;50.940;6.888;2022-08-11T19:37:25;5.63;;;4.83;;
3278;SDS011;1651;50.940;6.888;2022-08-11T19:40:11;6.70;;;5.27;;